Time;durP1;ratioP1;P1;durP2;ratioP2;P2;SDS_P1;SDS_P2;PMS_P1;PMS_P2;Temp;Humidity;BMP_temperature;BMP_pressure;BME280_temperature;BME280_humidity;BME280_pressure;Samples;Min_cycle;Max_cycle;Signal;HPM_P1;HPM_P2
2021/09/27 00:02:10;;;;;;;12.05;7.35;;;16.00;99.90;;;;;;4983147;28;20114;-69
2021/09/27 00:04:36;;;;;;;9.75;6.85;;;16.00;99.90;;;;;;4982694;28;20049;-70
2021/09/27 00:07:01;;;;;;;11.07;7.75;;;16.00;99.90;;;;;;4982774;28;20030;-70
2021/09/27 00:09:32;;;;;;;10.95;7.50;;;16.00;99.90;;;;;;4982701;28;20035;-70
2021/09/27 00:11:58;;;;;;;10.48;7.35;;;16.00;99.90;;;;;;4982480;28;20038;-70
2021/09/27 00:14:24;;;;;;;10.93;7.50;;;16.00;99.90;;;;;;4982678;28;20720;-69
2021/09/27 00:16:49;;;;;;;10.57;7.30;;;16.00;99.90;;;;;;4981320;28;20038;-70
2021/09/27 00:19:15;;;;;;;9.95;7.45;;;15.90;99.90;;;;;;4982509;28;20119;-69
2021/09/27 00:21:40;;;;;;;15.95;7.95;;;15.90;99.90;;;;;;4981040;28;20049;-69
2021/09/27 00:24:06;;;;;;;11.48;8.10;;;15.90;99.90;;;;;;4981190;28;20038;-69
2021/09/27 00:26:31;;;;;;;12.73;8.10;;;16.00;99.90;;;;;;4982315;28;20034;-69
2021/09/27 00:28:57;;;;;;;12.55;7.57;;;15.90;99.90;;;;;;4980652;28;20030;-69
2021/09/27 00:31:22;;;;;;;12.73;8.38;;;15.90;99.90;;;;;;4982739;28;20528;-70
2021/09/27 00:33:48;;;;;;;11.80;8.32;;;15.90;99.90;;;;;;4981472;28;20633;-69
2021/09/27 00:36:13;;;;;;;11.98;7.88;;;16.00;99.90;;;;;;4982293;28;20065;-69
2021/09/27 00:38:39;;;;;;;14.07;7.50;;;15.90;99.90;;;;;;4980184;28;20375;-69
2021/09/27 00:41:05;;;;;;;11.90;7.60;;;15.90;99.90;;;;;;4981990;28;20034;-69
2021/09/27 00:43:30;;;;;;;9.82;7.80;;;15.80;99.90;;;;;;4982670;28;20038;-69
2021/09/27 00:45:56;;;;;;;10.85;7.57;;;15.80;99.90;;;;;;4981163;28;20041;-69
2021/09/27 00:48:22;;;;;;;12.35;7.82;;;15.90;99.90;;;;;;4981213;28;20050;-69
2021/09/27 00:50:47;;;;;;;12.05;8.07;;;15.80;99.90;;;;;;4981530;28;20319;-70
2021/09/27 00:53:13;;;;;;;13.30;7.55;;;15.90;99.90;;;;;;4982063;28;20558;-69
2021/09/27 00:55:38;;;;;;;11.32;8.02;;;15.90;99.90;;;;;;4981623;28;20061;-69
2021/09/27 00:58:04;;;;;;;12.77;8.02;;;15.80;99.90;;;;;;4979507;28;20049;-69
2021/09/27 01:00:30;;;;;;;11.90;8.25;;;15.80;99.90;;;;;;4982254;28;20041;-69
2021/09/27 01:02:55;;;;;;;10.85;7.70;;;15.70;99.90;;;;;;4981094;28;20030;-69
2021/09/27 01:05:21;;;;;;;11.20;8.35;;;15.80;99.90;;;;;;4980162;28;20034;-69
2021/09/27 01:07:46;;;;;;;10.25;7.97;;;15.70;99.90;;;;;;4981337;28;20030;-69
2021/09/27 01:10:12;;;;;;;11.68;8.18;;;15.70;99.90;;;;;;4981436;28;20041;-69
2021/09/27 01:12:38;;;;;;;10.40;7.88;;;15.70;99.90;;;;;;4980077;28;20034;-69
2021/09/27 01:15:03;;;;;;;11.15;8.10;;;15.50;99.90;;;;;;4981508;28;20514;-69
2021/09/27 01:17:29;;;;;;;11.60;8.02;;;15.70;99.90;;;;;;4981083;28;20053;-69
2021/09/27 01:19:54;;;;;;;14.68;9.32;;;15.60;99.90;;;;;;4980879;28;20042;-70
2021/09/27 01:22:20;;;;;;;11.40;8.20;;;15.60;99.90;;;;;;4981524;28;20042;-69
2021/09/27 01:24:45;;;;;;;15.00;9.80;;;15.60;99.90;;;;;;4981649;28;20402;-69
2021/09/27 01:27:11;;;;;;;15.55;8.90;;;15.50;99.90;;;;;;4979947;28;20545;-69
2021/09/27 01:29:36;;;;;;;13.85;9.30;;;15.50;99.90;;;;;;4981862;28;20076;-69
2021/09/27 01:32:02;;;;;;;13.00;8.85;;;15.50;99.90;;;;;;4981343;28;20030;-69
2021/09/27 01:34:27;;;;;;;13.70;10.23;;;15.50;99.90;;;;;;4981064;28;20088;-69
2021/09/27 01:36:53;;;;;;;14.52;9.35;;;15.50;99.90;;;;;;4979735;28;20038;-70
2021/09/27 01:39:19;;;;;;;14.07;9.93;;;15.50;99.90;;;;;;4980989;28;20062;-69
2021/09/27 01:41:44;;;;;;;13.40;9.65;;;15.50;99.90;;;;;;4980951;28;20138;-69
2021/09/27 01:44:10;;;;;;;12.77;8.90;;;15.50;99.90;;;;;;4980419;28;20073;-69
2021/09/27 01:46:35;;;;;;;12.60;9.38;;;15.50;99.90;;;;;;4981157;28;20033;-69
2021/09/27 01:49:01;;;;;;;14.82;9.63;;;15.50;99.90;;;;;;4979694;28;20035;-70
2021/09/27 01:51:26;;;;;;;15.25;9.90;;;15.60;99.90;;;;;;4979008;28;20061;-69
2021/09/27 01:53:51;;;;;;;14.02;9.13;;;15.60;99.90;;;;;;4980692;28;20030;-69
2021/09/27 01:56:17;;;;;;;12.80;9.90;;;15.60;99.90;;;;;;4980068;28;20704;-69
2021/09/27 01:58:43;;;;;;;13.65;9.48;;;15.50;99.90;;;;;;4979106;28;20073;-69
2021/09/27 02:01:08;;;;;;;17.70;10.82;;;15.60;99.90;;;;;;4978978;28;20506;-69
2021/09/27 02:03:34;;;;;;;13.45;9.70;;;15.60;99.90;;;;;;4980193;28;20041;-69
2021/09/27 02:05:59;;;;;;;13.27;9.90;;;15.60;99.90;;;;;;4979711;28;20038;-69
2021/09/27 02:08:25;;;;;;;13.38;9.45;;;15.60;99.90;;;;;;4979957;28;20423;-70
2021/09/27 02:10:51;;;;;;;13.85;8.98;;;15.60;99.90;;;;;;4980494;28;20118;-69
2021/09/27 02:13:16;;;;;;;13.30;9.95;;;15.60;99.90;;;;;;4979198;28;20065;-69
2021/09/27 02:15:42;;;;;;;14.13;10.38;;;15.60;99.90;;;;;;4979519;28;20065;-69
2021/09/27 02:18:07;;;;;;;13.73;9.13;;;15.60;99.90;;;;;;4978882;28;20043;-69
2021/09/27 02:20:33;;;;;;;13.45;9.38;;;15.60;99.90;;;;;;4979948;28;20546;-69
2021/09/27 02:22:58;;;;;;;12.65;9.02;;;15.60;99.90;;;;;;4979790;28;20078;-69
2021/09/27 02:25:26;;;;;;;13.13;9.30;;;15.60;99.90;;;;;;4979783;28;20135;-69
2021/09/27 02:27:51;;;;;;;14.73;9.00;;;15.70;99.90;;;;;;4992111;28;20823;-69
2021/09/27 02:30:17;;;;;;;16.63;9.27;;;15.70;99.90;;;;;;4980121;28;20030;-69
2021/09/27 02:32:42;;;;;;;15.40;9.85;;;15.70;99.90;;;;;;4979943;28;20722;-69
2021/09/27 02:35:08;;;;;;;19.80;9.50;;;15.80;99.90;;;;;;4980874;28;20034;-69
2021/09/27 02:37:34;;;;;;;16.23;9.02;;;15.80;99.90;;;;;;4979917;28;20839;-69
2021/09/27 02:40:00;;;;;;;11.57;8.32;;;15.80;99.90;;;;;;4979729;28;20073;-69
2021/09/27 02:42:25;;;;;;;12.23;9.25;;;15.90;99.90;;;;;;4980026;28;20092;-70
2021/09/27 02:44:51;;;;;;;13.45;9.60;;;15.80;99.90;;;;;;4980275;28;20038;-69
2021/09/27 02:47:16;;;;;;;12.63;9.18;;;15.90;99.90;;;;;;4979811;28;20403;-69
2021/09/27 02:49:44;;;;;;;12.68;8.43;;;16.00;99.90;;;;;;4979578;28;20034;-69
2021/09/27 02:52:10;;;;;;;12.98;9.20;;;16.00;99.90;;;;;;4976455;28;20529;-69
2021/09/27 02:54:35;;;;;;;12.38;8.93;;;16.00;99.90;;;;;;4979076;28;20042;-69
2021/09/27 02:57:01;;;;;;;11.27;8.82;;;16.10;99.90;;;;;;4979501;28;20424;-69
2021/09/27 02:59:26;;;;;;;11.27;8.48;;;16.10;99.90;;;;;;4979066;28;20213;-69
2021/09/27 03:01:52;;;;;;;12.80;8.95;;;16.10;99.90;;;;;;4979325;28;20812;-69
2021/09/27 03:04:17;;;;;;;11.52;8.45;;;16.20;99.90;;;;;;4978562;28;20038;-69
2021/09/27 03:06:43;;;;;;;12.65;8.70;;;16.20;99.90;;;;;;4979657;28;20453;-70
2021/09/27 03:09:08;;;;;;;11.30;8.35;;;16.20;99.90;;;;;;4978911;28;20035;-70
2021/09/27 03:11:34;;;;;;;11.57;8.27;;;16.10;99.90;;;;;;4979435;28;20038;-70
2021/09/27 03:13:59;;;;;;;13.02;8.88;;;16.10;99.90;;;;;;4978458;28;20023;-69
2021/09/27 03:16:25;;;;;;;11.70;7.95;;;16.10;99.90;;;;;;4979423;28;20768;-69
2021/09/27 03:18:50;;;;;;;13.63;9.27;;;16.10;99.90;;;;;;4979455;28;20047;-69
2021/09/27 03:21:16;;;;;;;11.93;8.40;;;16.10;99.90;;;;;;4979639;28;20108;-69
2021/09/27 03:23:41;;;;;;;13.52;9.07;;;16.20;99.90;;;;;;4978841;28;20026;-69
2021/09/27 03:26:07;;;;;;;13.82;9.50;;;16.10;99.90;;;;;;4980156;28;20117;-69
2021/09/27 03:28:32;;;;;;;14.20;8.48;;;16.10;99.90;;;;;;4979658;28;20034;-69
2021/09/27 03:30:58;;;;;;;15.30;9.75;;;15.90;99.90;;;;;;4978715;28;20049;-69
2021/09/27 03:33:23;;;;;;;13.45;9.75;;;15.80;99.90;;;;;;4977889;28;20035;-69
2021/09/27 03:35:50;;;;;;;11.40;8.82;;;15.70;99.90;;;;;;4983363;28;20046;-70
2021/09/27 03:38:16;;;;;;;12.23;8.80;;;15.60;99.90;;;;;;4983245;28;20041;-69
2021/09/27 03:40:41;;;;;;;13.82;9.02;;;15.60;99.90;;;;;;4983379;28;20034;-69
2021/09/27 03:43:07;;;;;;;12.98;8.90;;;15.60;99.90;;;;;;4981741;28;20049;-69
2021/09/27 03:45:32;;;;;;;16.00;9.88;;;15.70;99.90;;;;;;4983380;28;20034;-69
2021/09/27 03:47:58;;;;;;;13.35;9.50;;;15.80;99.90;;;;;;4982760;28;20129;-70
2021/09/27 03:50:23;;;;;;;15.32;10.15;;;15.80;99.90;;;;;;4983385;28;20673;-69
2021/09/27 03:52:48;;;;;;;12.57;9.27;;;15.90;99.90;;;;;;4983540;28;20100;-69
2021/09/27 03:55:14;;;;;;;13.88;9.70;;;15.80;99.90;;;;;;4982762;28;20697;-69
2021/09/27 03:57:39;;;;;;;13.23;9.02;;;15.80;99.90;;;;;;4981545;28;20046;-69
2021/09/27 04:00:05;;;;;;;12.07;9.05;;;15.70;99.90;;;;;;4981091;28;20049;-69
2021/09/27 04:02:33;;;;;;;12.68;9.52;;;15.60;99.90;;;;;;4982948;28;20038;-69
2021/09/27 04:05:00;;;;;;;16.38;9.13;;;15.60;99.90;;;;;;4982193;28;20492;-69
2021/09/27 04:07:25;;;;;;;14.13;10.35;;;15.60;99.90;;;;;;4981332;28;20026;-69
2021/09/27 04:09:51;;;;;;;16.42;10.23;;;15.50;99.90;;;;;;4982698;28;20581;-69
2021/09/27 04:12:16;;;;;;;17.40;9.68;;;15.40;99.90;;;;;;4982187;28;20022;-69
2021/09/27 04:14:42;;;;;;;12.90;9.68;;;15.40;99.90;;;;;;4982723;28;20426;-69
2021/09/27 04:17:07;;;;;;;12.55;9.55;;;15.40;99.90;;;;;;4981430;28;20076;-69
2021/09/27 04:19:33;;;;;;;13.48;10.00;;;15.50;99.90;;;;;;4982693;28;20502;-70
2021/09/27 04:21:58;;;;;;;14.02;10.50;;;15.50;99.90;;;;;;4982604;28;20837;-70
2021/09/27 04:24:24;;;;;;;15.60;10.25;;;15.60;99.90;;;;;;4982022;28;20034;-70
2021/09/27 04:26:49;;;;;;;13.18;10.40;;;15.70;99.90;;;;;;4981652;28;20130;-69
2021/09/27 04:29:16;;;;;;;14.98;10.40;;;15.60;99.90;;;;;;4983313;28;20138;-69
2021/09/27 04:31:41;;;;;;;16.67;10.55;;;15.60;99.90;;;;;;4982855;28;20026;-69
2021/09/27 04:34:07;;;;;;;14.55;10.45;;;15.50;99.90;;;;;;4981725;28;20167;-70
2021/09/27 04:36:32;;;;;;;12.27;9.18;;;15.50;99.90;;;;;;4982993;28;20049;-66
2021/09/27 04:38:58;;;;;;;14.05;9.73;;;15.60;99.90;;;;;;4981522;28;20038;-66
2021/09/27 04:41:23;;;;;;;11.55;8.73;;;15.70;99.90;;;;;;4981277;28;20034;-66
2021/09/27 04:43:49;;;;;;;12.10;9.55;;;15.80;99.90;;;;;;4980424;28;20033;-66
2021/09/27 04:46:14;;;;;;;12.00;8.95;;;16.00;99.90;;;;;;4978049;28;20553;-66
2021/09/27 04:48:40;;;;;;;14.02;9.00;;;16.00;99.90;;;;;;4981713;28;20034;-66
2021/09/27 04:51:05;;;;;;;12.27;9.32;;;16.00;99.90;;;;;;4982236;28;20030;-66
2021/09/27 04:53:31;;;;;;;13.35;9.23;;;16.10;99.90;;;;;;4979977;28;20084;-66
2021/09/27 04:55:56;;;;;;;14.88;9.13;;;16.10;99.90;;;;;;4982456;28;20855;-66
2021/09/27 04:58:22;;;;;;;10.50;8.43;;;16.00;99.90;;;;;;4981796;28;20514;-66
2021/09/27 05:00:48;;;;;;;15.18;9.15;;;16.00;99.90;;;;;;4981042;28;20046;-66
2021/09/27 05:03:13;;;;;;;12.70;9.05;;;16.00;99.90;;;;;;4977461;28;20043;-66
2021/09/27 05:05:39;;;;;;;12.82;9.07;;;16.00;99.90;;;;;;4981385;28;20048;-66
2021/09/27 05:08:04;;;;;;;11.45;8.77;;;16.00;99.90;;;;;;4980828;28;20163;-66
2021/09/27 05:10:30;;;;;;;21.48;10.60;;;16.10;99.90;;;;;;4981178;28;20026;-66
2021/09/27 05:12:55;;;;;;;13.02;9.75;;;16.00;99.90;;;;;;4963903;28;20081;-66
2021/09/27 05:15:21;;;;;;;13.65;9.55;;;15.90;99.90;;;;;;4980818;28;20038;-66
2021/09/27 05:17:46;;;;;;;13.43;9.77;;;15.90;99.90;;;;;;4981262;28;20595;-66
2021/09/27 05:20:12;;;;;;;13.70;10.02;;;15.80;99.90;;;;;;4981581;28;20053;-66
2021/09/27 05:22:37;;;;;;;14.05;9.85;;;15.90;99.90;;;;;;4980438;28;20042;-66
2021/09/27 05:25:03;;;;;;;21.65;10.35;;;15.90;99.90;;;;;;4981410;28;20036;-66
2021/09/27 05:27:28;;;;;;;13.30;9.88;;;15.90;99.90;;;;;;4980944;28;20042;-66
2021/09/27 05:29:54;;;;;;;14.25;9.70;;;15.90;99.90;;;;;;4980522;28;20037;-66
2021/09/27 05:32:19;;;;;;;12.75;10.10;;;16.00;99.90;;;;;;4981076;28;20038;-68
2021/09/27 05:34:45;;;;;;;15.57;10.55;;;16.00;99.90;;;;;;4980743;28;20037;-68
2021/09/27 05:37:10;;;;;;;13.02;10.20;;;16.00;99.90;;;;;;4980541;28;20084;-67
2021/09/27 05:39:37;;;;;;;11.48;9.38;;;16.10;99.90;;;;;;4980066;28;20034;-68
2021/09/27 05:42:03;;;;;;;13.38;9.25;;;16.10;99.90;;;;;;4979847;28;20042;-68
2021/09/27 05:44:28;;;;;;;14.20;10.50;;;16.20;99.90;;;;;;4978111;28;20046;-67
2021/09/27 05:46:54;;;;;;;13.30;10.30;;;16.20;99.90;;;;;;4979067;28;20428;-65
2021/09/27 05:49:19;;;;;;;12.88;9.35;;;16.10;99.90;;;;;;4979352;28;20038;-65
2021/09/27 05:51:47;;;;;;;15.32;10.65;;;16.10;99.90;;;;;;4979305;28;20026;-65
2021/09/27 05:54:12;;;;;;;14.25;9.55;;;16.00;99.90;;;;;;4980630;28;20041;-67
2021/09/27 05:56:38;;;;;;;15.00;10.70;;;16.10;99.90;;;;;;4979306;28;20070;-67
2021/09/27 05:59:03;;;;;;;15.30;9.85;;;16.20;99.90;;;;;;4979569;28;20030;-67
2021/09/27 06:01:29;;;;;;;12.05;9.10;;;16.30;99.90;;;;;;4980617;28;20454;-67
2021/09/27 06:03:54;;;;;;;13.05;9.27;;;16.30;99.90;;;;;;4980435;28;20034;-68
2021/09/27 06:06:21;;;;;;;19.23;11.10;;;16.40;99.90;;;;;;4980845;28;20137;-68
2021/09/27 06:08:47;;;;;;;14.27;10.55;;;16.30;99.90;;;;;;4980083;28;20030;-68
2021/09/27 06:11:12;;;;;;;11.38;9.18;;;16.20;99.90;;;;;;4980155;28;20034;-68
2021/09/27 06:13:38;;;;;;;17.23;9.93;;;16.30;99.90;;;;;;4980102;28;20069;-68
2021/09/27 06:16:03;;;;;;;16.02;11.05;;;16.40;99.90;;;;;;4978567;28;20034;-67
2021/09/27 06:18:29;;;;;;;13.52;10.13;;;16.30;99.90;;;;;;4978591;28;20034;-68
2021/09/27 06:20:54;;;;;;;17.23;9.40;;;16.40;99.90;;;;;;4979621;28;20137;-68
2021/09/27 06:23:19;;;;;;;14.00;10.40;;;16.40;99.90;;;;;;4979145;28;20506;-68
2021/09/27 06:25:45;;;;;;;12.95;9.65;;;16.50;99.90;;;;;;4979527;28;20034;-68
2021/09/27 06:28:11;;;;;;;12.55;9.45;;;16.60;99.90;;;;;;4976958;28;20030;-68
2021/09/27 06:30:36;;;;;;;14.07;10.13;;;16.50;99.90;;;;;;4977944;28;20037;-69
2021/09/27 06:33:02;;;;;;;12.40;9.75;;;16.30;99.90;;;;;;4978983;28;20574;-68
2021/09/27 06:35:27;;;;;;;13.27;9.57;;;16.30;99.90;;;;;;4979446;28;20129;-68
2021/09/27 06:37:53;;;;;;;15.15;10.55;;;16.40;99.90;;;;;;4978818;28;20926;-68
2021/09/27 06:40:18;;;;;;;16.17;11.18;;;16.60;99.90;;;;;;4979147;28;20065;-68
2021/09/27 06:42:44;;;;;;;14.75;10.38;;;16.70;99.90;;;;;;4979193;28;20040;-68
2021/09/27 06:45:09;;;;;;;15.90;11.38;;;16.70;99.90;;;;;;4977453;28;20042;-68
2021/09/27 06:47:35;;;;;;;14.40;9.85;;;16.90;99.90;;;;;;4978957;28;20033;-68
2021/09/27 06:50:00;;;;;;;16.70;12.52;;;17.00;99.90;;;;;;4977840;28;20532;-68
2021/09/27 06:52:26;;;;;;;16.20;12.30;;;17.00;99.90;;;;;;4977627;28;20487;-68
2021/09/27 06:54:51;;;;;;;17.48;11.25;;;17.10;99.90;;;;;;4979751;28;20046;-68
2021/09/27 06:57:17;;;;;;;21.02;14.82;;;17.10;99.90;;;;;;4977417;28;20146;-68
2021/09/27 06:59:42;;;;;;;17.35;11.55;;;17.20;99.90;;;;;;4979271;28;20529;-68
2021/09/27 07:02:08;;;;;;;13.90;9.98;;;17.40;99.90;;;;;;4977842;28;20078;-68
2021/09/27 07:04:34;;;;;;;11.43;9.18;;;17.50;99.90;;;;;;4979046;28;20042;-68
2021/09/27 07:06:59;;;;;;;15.27;9.80;;;17.40;99.90;;;;;;4979136;28;20121;-66
2021/09/27 07:09:25;;;;;;;13.60;9.13;;;17.50;99.90;;;;;;4980913;28;20121;-68
2021/09/27 07:11:50;;;;;;;10.48;8.27;;;17.30;99.90;;;;;;4984314;28;20042;-68
2021/09/27 07:14:16;;;;;;;10.63;8.85;;;17.40;99.90;;;;;;4985483;28;20031;-68
2021/09/27 07:16:41;;;;;;;15.45;9.65;;;17.40;99.90;;;;;;4986385;28;20114;-68
2021/09/27 07:19:07;;;;;;;13.10;8.93;;;17.50;99.90;;;;;;4986126;28;20031;-68
2021/09/27 07:21:32;;;;;;;15.15;8.10;;;17.60;99.90;;;;;;4983498;28;20122;-67
2021/09/27 07:23:58;;;;;;;12.05;8.75;;;17.50;99.90;;;;;;4968311;28;20046;-68
2021/09/27 07:26:23;;;;;;;10.90;8.18;;;17.50;99.90;;;;;;4985754;28;20545;-68
2021/09/27 07:28:52;;;;;;;12.23;8.10;;;17.70;99.90;;;;;;4985559;28;20147;-68
2021/09/27 07:31:18;;;;;;;9.80;7.75;;;17.60;99.90;;;;;;4985697;28;20098;-68
2021/09/27 07:33:44;;;;;;;11.18;8.27;;;17.80;99.90;;;;;;4984979;28;20034;-68
2021/09/27 07:36:09;;;;;;;12.25;7.63;;;17.90;99.90;;;;;;4985553;28;20569;-68
2021/09/27 07:38:36;;;;;;;13.68;7.72;;;18.00;99.90;;;;;;4983471;28;20036;-68
2021/09/27 07:41:01;;;;;;;12.57;8.65;;;18.10;99.90;;;;;;4985322;28;20088;-68
2021/09/27 07:43:27;;;;;;;12.23;7.97;;;18.10;99.90;;;;;;4983568;28;20056;-68
2021/09/27 07:45:52;;;;;;;11.05;8.40;;;18.10;99.90;;;;;;4985358;28;20030;-69
2021/09/27 07:48:18;;;;;;;19.17;10.00;;;18.10;99.90;;;;;;4985261;28;20042;-68
2021/09/27 07:50:43;;;;;;;16.17;9.63;;;18.10;99.90;;;;;;4983142;28;20034;-68
2021/09/27 07:53:09;;;;;;;10.77;7.28;;;18.20;99.90;;;;;;4984964;28;20675;-68
2021/09/27 07:55:35;;;;;;;11.77;8.20;;;18.20;99.90;;;;;;4985007;28;20054;-68
2021/09/27 07:58:00;;;;;;;10.38;7.25;;;18.20;99.90;;;;;;4984653;28;20034;-68
2021/09/27 08:00:26;;;;;;;9.52;7.15;;;18.20;99.90;;;;;;4983987;28;20045;-68
2021/09/27 08:02:51;;;;;;;10.43;7.40;;;18.10;99.90;;;;;;4985076;28;20129;-69
2021/09/27 08:05:17;;;;;;;11.75;8.30;;;18.00;99.90;;;;;;4985158;28;20038;-69
2021/09/27 08:07:42;;;;;;;13.73;7.57;;;18.00;99.90;;;;;;4983508;28;20037;-69
2021/09/27 08:10:08;;;;;;;11.13;7.50;;;18.10;99.90;;;;;;4986027;28;20049;-69
2021/09/27 08:12:36;;;;;;;13.15;8.02;;;18.00;99.90;;;;;;4983627;28;20038;-68
2021/09/27 08:15:02;;;;;;;9.90;7.38;;;18.10;99.90;;;;;;4980164;28;20034;-68
2021/09/27 08:17:27;;;;;;;10.65;7.75;;;18.10;99.90;;;;;;4985149;28;20402;-68
2021/09/27 08:19:55;;;;;;;12.32;7.93;;;18.10;99.90;;;;;;4984052;28;20061;-68
2021/09/27 08:22:21;;;;;;;9.32;6.85;;;18.10;99.90;;;;;;4979986;28;20449;-68
2021/09/27 08:24:46;;;;;;;11.88;7.97;;;18.30;99.90;;;;;;4978624;28;20097;-68
2021/09/27 08:27:12;;;;;;;9.88;7.32;;;18.30;99.90;;;;;;4982637;28;20129;-68
2021/09/27 08:29:37;;;;;;;13.43;8.13;;;18.20;99.90;;;;;;4965000;28;20034;-67
2021/09/27 08:32:03;;;;;;;10.05;7.85;;;18.00;99.90;;;;;;4980562;28;20049;-67
2021/09/27 08:34:28;;;;;;;10.55;7.45;;;18.00;99.90;;;;;;4981892;28;20544;-67
2021/09/27 08:36:55;;;;;;;11.48;7.82;;;18.00;99.90;;;;;;4980728;28;20038;-68
2021/09/27 08:39:22;;;;;;;13.75;7.15;;;17.90;99.90;;;;;;4982551;28;20780;-68
2021/09/27 08:41:48;;;;;;;23.30;13.55;;;18.00;99.90;;;;;;4982402;28;20041;-68
2021/09/27 08:44:13;;;;;;;15.57;8.70;;;18.10;99.90;;;;;;4980792;28;20042;-67
2021/09/27 08:46:39;;;;;;;11.75;8.55;;;18.20;99.90;;;;;;4982530;28;20034;-68
2021/09/27 08:49:04;;;;;;;13.23;8.45;;;18.50;99.90;;;;;;4979829;28;20490;-68
2021/09/27 08:51:30;;;;;;;9.38;7.35;;;18.60;99.90;;;;;;4982421;28;20121;-68
2021/09/27 08:53:55;;;;;;;9.98;7.55;;;18.60;99.90;;;;;;4982127;28;20034;-68
2021/09/27 08:56:21;;;;;;;25.50;16.13;;;18.70;99.90;;;;;;4981001;28;20666;-68
2021/09/27 08:58:48;;;;;;;9.73;7.63;;;18.60;99.90;;;;;;4982374;28;20039;-69
2021/09/27 09:01:13;;;;;;;9.80;7.07;;;18.50;99.90;;;;;;4982278;28;20842;-68
2021/09/27 09:03:39;;;;;;;12.18;7.80;;;18.40;99.90;;;;;;4982322;28;20052;-68
2021/09/27 09:06:04;;;;;;;11.32;7.65;;;18.20;99.90;;;;;;4980120;28;20042;-70
2021/09/27 09:08:30;;;;;;;11.82;8.98;;;18.00;99.90;;;;;;4979585;28;20823;-69
2021/09/27 09:10:55;;;;;;;14.63;8.43;;;18.00;99.90;;;;;;4981107;28;20380;-69
2021/09/27 09:13:20;;;;;;;13.73;8.93;;;17.90;99.90;;;;;;4962575;28;20084;-69
2021/09/27 09:15:46;;;;;;;12.32;9.43;;;17.90;99.90;;;;;;4979645;28;20541;-69
2021/09/27 09:18:11;;;;;;;12.65;9.48;;;17.80;99.90;;;;;;4980671;28;20045;-70
2021/09/27 09:20:37;;;;;;;12.27;9.57;;;17.80;99.90;;;;;;4979604;28;20759;-71
2021/09/27 09:23:04;;;;;;;13.45;9.88;;;17.80;99.90;;;;;;4981538;28;20499;-69
2021/09/27 09:25:29;;;;;;;14.43;9.77;;;17.80;99.90;;;;;;4979839;28;20072;-69
2021/09/27 09:27:55;;;;;;;13.63;9.80;;;17.80;99.90;;;;;;4981008;28;20514;-68
2021/09/27 09:30:20;;;;;;;12.18;9.05;;;17.80;99.90;;;;;;4980983;28;20129;-68
2021/09/27 09:32:46;;;;;;;14.85;10.43;;;17.80;99.90;;;;;;4981454;28;20038;-68
2021/09/27 09:35:11;;;;;;;15.98;10.77;;;17.90;99.90;;;;;;4980639;28;20046;-68
2021/09/27 09:37:37;;;;;;;12.98;9.65;;;18.00;99.90;;;;;;4980659;28;20141;-68
2021/09/27 09:40:02;;;;;;;15.30;9.52;;;18.10;99.90;;;;;;4979988;28;20038;-68
2021/09/27 09:42:28;;;;;;;11.35;9.10;;;18.20;99.90;;;;;;4980944;28;20050;-68
2021/09/27 09:44:54;;;;;;;18.48;9.50;;;18.30;99.90;;;;;;4981346;28;20096;-68
2021/09/27 09:47:19;;;;;;;15.23;10.35;;;18.20;99.90;;;;;;4980812;28;20546;-68
2021/09/27 09:49:45;;;;;;;13.73;10.50;;;18.30;99.90;;;;;;4979175;28;20041;-67
2021/09/27 09:52:12;;;;;;;14.30;10.52;;;18.60;99.90;;;;;;4975195;28;20018;-68
2021/09/27 09:54:38;;;;;;;14.52;10.45;;;18.60;99.90;;;;;;4962708;28;20076;-67
2021/09/27 09:57:04;;;;;;;38.53;18.48;;;18.80;99.90;;;;;;4962695;28;20092;-68
2021/09/27 09:59:29;;;;;;;13.85;9.20;;;18.80;99.90;;;;;;4980348;28;20038;-67
2021/09/27 10:01:55;;;;;;;12.30;9.13;;;18.80;99.90;;;;;;4980935;28;20125;-67
2021/09/27 10:04:21;;;;;;;11.82;9.40;;;18.80;99.90;;;;;;4980076;28;20036;-67
2021/09/27 10:06:46;;;;;;;14.98;8.95;;;19.10;99.90;;;;;;4979255;28;20820;-68
2021/09/27 10:09:12;;;;;;;13.77;8.55;;;19.30;99.90;;;;;;4963286;28;20112;-67
2021/09/27 10:11:37;;;;;;;12.88;8.57;;;19.20;99.90;;;;;;4980171;28;20488;-67
2021/09/27 10:14:03;;;;;;;15.73;7.57;;;19.30;99.90;;;;;;4980972;28;20034;-67
2021/09/27 10:16:28;;;;;;;11.98;8.95;;;19.10;99.90;;;;;;4978799;28;20038;-67
2021/09/27 10:18:54;;;;;;;10.48;7.78;;;19.00;99.90;;;;;;4980097;28;20415;-67
2021/09/27 10:21:19;;;;;;;16.83;8.30;;;19.00;99.90;;;;;;4980052;28;20120;-67
2021/09/27 10:23:45;;;;;;;10.80;7.40;;;19.00;99.90;;;;;;4979474;28;20026;-67
2021/09/27 10:26:10;;;;;;;10.32;8.02;;;19.20;99.90;;;;;;4978387;28;20118;-67
2021/09/27 10:28:37;;;;;;;21.13;13.52;;;19.50;99.90;;;;;;4978210;28;20116;-67
2021/09/27 10:31:03;;;;;;;18.80;9.05;;;19.80;99.90;;;;;;4980056;28;20475;-67
2021/09/27 10:33:29;;;;;;;13.07;7.50;;;20.00;99.90;;;;;;4977962;28;20042;-70
2021/09/27 10:35:54;;;;;;;11.13;7.63;;;20.20;99.90;;;;;;4978963;28;20034;-69
2021/09/27 10:38:20;;;;;;;9.70;7.45;;;19.80;99.90;;;;;;4962115;28;20045;-69
2021/09/27 10:40:45;;;;;;;10.30;7.53;;;19.70;99.90;;;;;;4979642;28;20121;-69
2021/09/27 10:43:11;;;;;;;15.10;7.97;;;19.50;99.90;;;;;;4986474;28;20034;-69
2021/09/27 10:45:36;;;;;;;12.63;8.88;;;19.40;99.90;;;;;;4979349;28;20046;-69
2021/09/27 10:48:02;;;;;;;12.75;7.85;;;19.40;99.90;;;;;;4979433;28;20118;-69
2021/09/27 10:50:27;;;;;;;11.52;8.00;;;19.30;99.90;;;;;;4978714;28;20117;-69
2021/09/27 10:52:53;;;;;;;13.68;7.68;;;19.00;99.90;;;;;;4977515;28;20116;-69
2021/09/27 10:55:18;;;;;;;12.57;8.32;;;19.10;99.90;;;;;;4978930;28;20154;-69
2021/09/27 10:57:44;;;;;;;9.23;7.10;;;19.10;99.90;;;;;;4978811;28;20675;-69
2021/09/27 11:00:09;;;;;;;11.18;7.65;;;19.30;99.90;;;;;;4980071;28;20694;-71
2021/09/27 11:02:35;;;;;;;11.65;7.18;;;19.40;99.90;;;;;;4977891;28;20578;-70
2021/09/27 11:05:00;;;;;;;9.55;7.10;;;19.50;99.90;;;;;;4979195;28;20031;-69
2021/09/27 11:07:26;;;;;;;13.10;7.53;;;19.70;99.90;;;;;;4979482;28;20034;-70
2021/09/27 11:09:51;;;;;;;11.68;7.10;;;19.40;99.90;;;;;;4978799;28;20042;-70
2021/09/27 11:12:17;;;;;;;11.77;8.57;;;19.50;99.90;;;;;;4977989;28;20042;-70
2021/09/27 11:14:42;;;;;;;10.63;7.45;;;19.70;99.90;;;;;;4977849;28;20707;-69
2021/09/27 11:17:08;;;;;;;10.68;7.53;;;19.70;99.90;;;;;;4976948;28;20042;-69
2021/09/27 11:19:33;;;;;;;14.30;7.55;;;19.90;99.90;;;;;;4979213;28;20102;-70
2021/09/27 11:21:59;;;;;;;14.38;9.05;;;20.30;99.90;;;;;;4977384;28;20044;-68
2021/09/27 11:24:24;;;;;;;12.60;7.45;;;20.20;99.90;;;;;;4977545;28;20108;-69
2021/09/27 11:26:50;;;;;;;10.68;7.55;;;20.20;99.90;;;;;;4961148;28;20030;-70
2021/09/27 11:29:15;;;;;;;11.15;6.75;;;20.00;99.90;;;;;;4979280;28;20114;-70
2021/09/27 11:31:40;;;;;;;11.68;7.57;;;20.00;99.90;;;;;;4979284;28;20033;-69
2021/09/27 11:34:06;;;;;;;13.95;7.85;;;20.10;99.90;;;;;;4976918;28;20491;-69
2021/09/27 11:36:31;;;;;;;11.38;7.95;;;20.20;99.90;;;;;;4977584;28;20034;-67
2021/09/27 11:38:57;;;;;;;10.68;7.50;;;20.20;99.90;;;;;;4976254;28;20045;-69
2021/09/27 11:41:23;;;;;;;12.35;7.15;;;20.20;99.90;;;;;;4977288;28;20061;-67
2021/09/27 11:43:48;;;;;;;10.85;6.95;;;20.40;99.90;;;;;;4979074;28;20043;-68
2021/09/27 11:46:14;;;;;;;11.73;7.97;;;20.60;99.90;;;;;;4978847;28;20042;-68
2021/09/27 11:48:43;;;;;;;9.10;7.32;;;20.60;99.90;;;;;;4979316;28;20038;-68
2021/09/27 11:51:09;;;;;;;10.85;7.90;;;20.80;99.90;;;;;;4979081;28;20840;-67
2021/09/27 11:53:34;;;;;;;11.10;8.40;;;20.80;99.90;;;;;;4979495;28;20042;-67
2021/09/27 11:55:59;;;;;;;11.25;7.38;;;20.70;99.90;;;;;;4981963;28;20058;-68
2021/09/27 11:58:25;;;;;;;10.85;7.72;;;20.70;99.90;;;;;;4982476;28;20045;-67
2021/09/27 12:00:50;;;;;;;13.48;8.80;;;20.70;99.90;;;;;;4983333;28;20112;-68
2021/09/27 12:03:16;;;;;;;14.95;8.55;;;20.30;99.90;;;;;;4982288;28;20844;-68
2021/09/27 12:05:41;;;;;;;10.70;7.93;;;20.30;99.90;;;;;;4981617;28;20085;-68
2021/09/27 12:08:07;;;;;;;12.77;8.65;;;20.30;99.90;;;;;;4983026;28;20084;-69
2021/09/27 12:10:32;;;;;;;12.10;8.85;;;20.20;99.90;;;;;;4982565;28;20117;-68
2021/09/27 12:12:58;;;;;;;19.73;13.20;;;20.20;99.90;;;;;;4982955;28;20026;-65
2021/09/27 12:15:23;;;;;;;28.17;16.83;;;20.00;99.90;;;;;;4980752;28;20828;-66
2021/09/27 12:17:49;;;;;;;23.08;14.45;;;20.30;99.90;;;;;;4982749;28;20161;-65
2021/09/27 12:20:14;;;;;;;14.57;10.57;;;20.10;99.90;;;;;;4981081;28;20085;-66
2021/09/27 12:22:40;;;;;;;13.52;9.07;;;20.10;99.90;;;;;;4982461;28;20513;-66
2021/09/27 12:25:05;;;;;;;11.27;8.80;;;20.10;99.90;;;;;;4981411;28;20046;-66
2021/09/27 12:27:31;;;;;;;12.40;8.70;;;20.20;99.90;;;;;;4979965;28;20947;-65